createdAt,value
2022-09-10T00:03:00.280Z,57.74
2022-09-10T00:08:13.747Z,57.55
2022-09-10T00:13:06.641Z,57.62
2022-09-10T00:18:06.552Z,58.10
2022-09-10T00:23:06.581Z,58.54
2022-09-10T00:28:06.550Z,58.75
2022-09-10T00:33:06.443Z,57.98
2022-09-10T00:38:06.303Z,58.42
2022-09-10T00:43:06.242Z,58.26
2022-09-10T00:48:06.167Z,58.10
2022-09-10T00:53:06.113Z,58.38
2022-09-10T00:58:06.042Z,58.63
2022-09-10T01:03:06.008Z,58.14
2022-09-10T01:08:05.978Z,57.90
2022-09-10T01:13:05.844Z,57.94
2022-09-10T01:18:05.752Z,57.58
2022-09-10T01:23:05.827Z,57.78
2022-09-10T01:28:05.627Z,57.66
2022-09-10T01:33:05.592Z,57.39
2022-09-10T01:38:05.515Z,57.19
2022-09-10T01:43:05.448Z,57.23
2022-09-10T01:48:05.379Z,57.08
2022-09-10T01:53:05.446Z,57.19
2022-09-10T01:58:05.251Z,57.31
2022-09-10T02:03:05.194Z,56.96
2022-09-10T02:08:05.256Z,56.70
2022-09-10T02:13:05.034Z,56.89
2022-09-10T02:18:05.017Z,56.51
2022-09-10T02:23:04.967Z,56.09
2022-09-10T02:28:04.847Z,56.17
2022-09-10T02:33:04.767Z,56.13
2022-09-10T02:38:04.731Z,55.98
2022-09-10T02:43:04.603Z,56.06
2022-09-10T02:48:04.585Z,56.06
2022-09-10T02:53:04.540Z,56.24
2022-09-10T02:58:04.414Z,56.21
2022-09-10T03:03:04.455Z,56.02
2022-09-10T03:08:04.408Z,56.17
2022-09-10T03:13:04.236Z,56.17
2022-09-10T03:18:04.196Z,56.13
2022-09-10T03:23:04.103Z,56.09
2022-09-10T03:28:04.004Z,56.09
2022-09-10T03:33:04.027Z,56.17
2022-09-10T03:38:03.899Z,56.24
2022-09-10T03:43:03.864Z,56.09
2022-09-10T03:48:03.775Z,56.28
2022-09-10T03:53:03.716Z,56.02
2022-09-10T03:58:03.674Z,56.17
2022-09-10T04:03:03.561Z,55.91
2022-09-10T04:08:03.579Z,55.69
2022-09-10T04:13:03.510Z,55.94
2022-09-10T04:18:17.444Z,55.69
2022-09-10T04:23:10.366Z,55.65
2022-09-10T04:28:10.315Z,55.87
2022-09-10T04:33:10.235Z,55.69
2022-09-10T04:38:10.173Z,55.76
2022-09-10T04:43:10.124Z,55.65
2022-09-10T04:48:10.037Z,55.72
2022-09-10T04:53:09.975Z,55.58
2022-09-10T04:58:09.923Z,55.32
2022-09-10T05:03:09.823Z,55.43
2022-09-10T05:08:09.803Z,55.28
2022-09-10T05:13:09.701Z,55.72
2022-09-10T05:18:09.666Z,55.76
2022-09-10T05:23:09.592Z,55.83
2022-09-10T05:28:09.511Z,56.06
2022-09-10T05:33:09.575Z,55.87
2022-09-10T05:38:09.395Z,56.35
2022-09-10T05:43:09.307Z,56.06
2022-09-10T05:48:09.307Z,56.06
2022-09-10T05:53:09.177Z,55.83
2022-09-10T05:58:09.107Z,56.09
2022-09-10T06:03:09.148Z,56.02
2022-09-10T06:08:09.302Z,55.72
2022-09-10T06:13:08.900Z,55.54
2022-09-10T06:18:08.849Z,55.54
2022-09-10T06:23:08.765Z,55.21
2022-09-10T06:28:08.711Z,54.89
2022-09-10T06:33:08.629Z,54.60
2022-09-10T06:38:08.575Z,54.39
2022-09-10T06:43:08.507Z,54.53
2022-09-10T06:53:09.428Z,54.36
2022-09-10T06:58:08.305Z,54.15
2022-09-10T07:03:08.239Z,54.22
2022-09-10T07:08:08.171Z,53.91
2022-09-10T07:13:08.105Z,53.74
2022-09-10T07:18:08.079Z,53.46
2022-09-10T07:23:11.083Z,53.26
2022-09-10T07:28:07.909Z,53.19
2022-09-10T07:33:07.851Z,53.03
2022-09-10T07:38:07.791Z,53.03
2022-09-10T07:43:07.790Z,52.86
2022-09-10T07:48:07.663Z,52.73
2022-09-10T07:53:07.654Z,52.83
2022-09-10T07:58:07.568Z,52.93
2022-09-10T08:03:07.536Z,52.83
2022-09-10T08:08:07.392Z,52.66
2022-09-10T08:13:07.320Z,52.66
2022-09-10T08:18:07.252Z,52.83
2022-09-10T08:23:07.254Z,52.73
2022-09-10T08:28:07.135Z,52.53
2022-09-10T08:33:07.048Z,52.50
2022-09-10T08:38:06.979Z,52.24
2022-09-10T08:43:06.898Z,51.54
2022-09-10T08:48:06.868Z,50.76
2022-09-10T08:53:06.792Z,49.92
2022-09-10T08:58:06.731Z,48.79
2022-09-10T09:03:07.029Z,47.80
2022-09-10T09:08:06.690Z,47.03
2022-09-10T09:13:06.597Z,46.66
2022-09-10T09:18:06.443Z,45.17
2022-09-10T09:23:06.462Z,43.81
2022-09-10T09:28:06.320Z,43.27
2022-09-10T09:33:06.280Z,43.49
2022-09-10T09:38:06.170Z,43.00
2022-09-10T09:43:06.174Z,42.10
2022-09-10T09:48:06.052Z,41.52
2022-09-10T09:53:06.036Z,41.65
2022-09-10T09:58:05.943Z,41.32
2022-09-10T10:03:05.851Z,41.73
2022-09-10T10:08:08.039Z,42.27
2022-09-10T10:13:05.741Z,42.57
2022-09-10T10:18:05.697Z,42.66
2022-09-10T10:23:05.635Z,42.61
2022-09-10T10:28:05.533Z,42.53
2022-09-10T10:33:05.508Z,42.44
2022-09-10T10:38:05.517Z,42.96
2022-09-10T10:43:05.368Z,42.87
2022-09-10T10:48:05.261Z,42.53
2022-09-10T10:53:05.610Z,42.96
2022-09-10T10:58:05.130Z,42.70
2022-09-10T11:03:05.137Z,42.40
2022-09-10T11:08:05.017Z,41.60
2022-09-10T11:13:04.934Z,40.60
2022-09-10T11:18:04.868Z,40.33
2022-09-10T11:23:08.753Z,40.64
2022-09-10T11:28:04.763Z,40.64
2022-09-10T11:33:04.751Z,41.12
2022-09-10T11:38:04.671Z,41.40
2022-09-10T11:43:04.568Z,41.73
2022-09-10T11:48:04.451Z,42.02
2022-09-10T11:53:04.401Z,42.19
2022-09-10T11:58:04.437Z,42.19
2022-09-10T12:03:04.284Z,42.36
2022-09-10T12:08:04.205Z,42.70
2022-09-10T12:13:04.150Z,43.05
2022-09-10T12:18:04.067Z,43.45
2022-09-10T12:23:04.009Z,43.94
2022-09-10T12:28:03.934Z,43.76
2022-09-10T12:33:03.873Z,43.05
2022-09-10T12:38:03.831Z,42.57
2022-09-10T12:43:03.743Z,42.15
2022-09-10T12:48:03.673Z,41.81
2022-09-10T12:53:03.688Z,42.19
2022-09-10T12:58:03.560Z,42.44
2022-09-10T13:03:03.604Z,43.18
2022-09-10T13:08:03.441Z,43.72
2022-09-10T13:13:03.370Z,44.08
2022-09-10T13:18:03.349Z,44.40
2022-09-10T13:23:03.197Z,44.36
2022-09-10T13:28:03.193Z,44.22
2022-09-10T13:33:03.088Z,44.31
2022-09-10T13:38:03.049Z,44.03
2022-09-10T13:43:02.943Z,43.99
2022-09-10T13:48:02.931Z,43.58
2022-09-10T13:53:02.839Z,43.45
2022-09-10T13:58:03.045Z,43.53
2022-09-10T14:03:02.730Z,43.85
2022-09-10T14:08:02.802Z,44.22
2022-09-10T14:13:02.547Z,44.50
2022-09-10T14:18:02.593Z,44.78
2022-09-10T14:23:02.421Z,45.21
2022-09-10T14:28:02.442Z,45.36
2022-09-10T14:33:02.316Z,45.75
2022-09-10T14:38:02.241Z,45.90
2022-09-10T14:43:02.171Z,46.05
2022-09-10T14:48:02.081Z,46.51
2022-09-10T14:53:02.009Z,46.87
2022-09-10T14:58:01.984Z,47.03
2022-09-10T15:03:02.625Z,46.97
2022-09-10T15:08:01.925Z,46.56
2022-09-10T15:13:01.766Z,46.66
2022-09-10T15:18:01.728Z,46.46
2022-09-10T15:23:01.615Z,46.15
2022-09-10T15:28:01.763Z,46.35
2022-09-10T15:33:01.501Z,46.25
2022-09-10T15:38:01.475Z,46.00
2022-09-10T15:43:01.383Z,45.85
2022-09-10T15:48:01.283Z,45.75
2022-09-10T15:53:01.302Z,45.60
2022-09-10T15:58:01.168Z,45.51
2022-09-10T16:03:01.179Z,45.17
2022-09-10T16:08:01.046Z,44.97
2022-09-10T16:13:00.965Z,44.73
2022-09-10T16:18:00.967Z,44.64
2022-09-10T16:23:00.822Z,44.64
2022-09-10T16:28:00.957Z,44.78
2022-09-10T16:33:00.674Z,45.07
2022-09-10T16:38:00.612Z,45.02
2022-09-10T16:43:00.579Z,45.36
2022-09-10T16:48:04.157Z,45.41
2022-09-10T16:53:00.427Z,45.65
2022-09-10T16:58:00.356Z,45.85
2022-09-10T17:03:00.320Z,45.65
2022-09-10T17:08:00.672Z,45.90
2022-09-10T17:13:00.278Z,46.00
2022-09-10T17:18:00.062Z,46.20
2022-09-10T17:23:00.147Z,46.20
2022-09-10T17:27:59.975Z,46.35
2022-09-10T17:32:59.922Z,46.66
2022-09-10T17:37:59.808Z,46.71
2022-09-10T17:43:00.063Z,47.08
2022-09-10T17:47:59.796Z,47.24
2022-09-10T17:52:59.684Z,47.16
2022-09-10T17:57:59.701Z,47.53
2022-09-10T18:02:59.563Z,47.66
2022-09-10T18:07:59.426Z,47.88
2022-09-10T18:13:00.436Z,48.18
2022-09-10T18:17:59.311Z,48.26
2022-09-10T18:22:59.271Z,48.43
2022-09-10T18:27:59.224Z,48.91
2022-09-10T18:32:59.160Z,49.05
2022-09-10T18:37:59.022Z,49.05
2022-09-10T18:42:58.984Z,49.31
2022-09-10T18:47:58.896Z,49.45
2022-09-10T18:52:59.033Z,49.63
2022-09-10T18:57:58.790Z,49.71
2022-09-10T19:02:58.698Z,49.86
2022-09-10T19:07:58.666Z,50.16
2022-09-10T19:12:59.465Z,50.16
2022-09-10T19:17:58.526Z,50.37
2022-09-10T19:22:58.418Z,50.40
2022-09-10T19:27:58.352Z,50.52
2022-09-10T19:32:58.313Z,50.64
2022-09-10T19:37:58.619Z,50.85
2022-09-10T19:42:58.154Z,50.76
2022-09-10T19:47:58.173Z,50.70
2022-09-10T19:52:58.028Z,50.58
2022-09-10T19:57:57.959Z,50.76
2022-09-10T20:02:58.218Z,51.01
2022-09-10T20:07:58.057Z,51.10
2022-09-10T20:12:57.793Z,51.19
2022-09-10T20:17:57.742Z,51.38
2022-09-10T20:22:57.613Z,51.13
2022-09-10T20:27:57.569Z,51.38
2022-09-10T20:32:57.537Z,51.38
2022-09-10T20:37:57.437Z,51.35
2022-09-10T20:42:57.362Z,51.54
2022-09-10T20:47:57.429Z,51.85
2022-09-10T20:52:57.240Z,51.88
2022-09-10T20:57:57.164Z,51.95
2022-09-10T21:02:57.108Z,51.88
2022-09-10T21:07:57.038Z,52.24
2022-09-10T21:12:57.008Z,52.04
2022-09-10T21:17:56.888Z,51.82
2022-09-10T21:22:56.991Z,51.98
2022-09-10T21:27:56.759Z,51.95
2022-09-10T21:32:56.706Z,52.08
2022-09-10T21:37:56.644Z,51.82
2022-09-10T21:42:56.571Z,51.98
2022-09-10T21:47:56.523Z,51.76
2022-09-10T21:52:56.469Z,51.66
2022-09-10T21:57:56.405Z,51.92
2022-09-10T22:02:56.306Z,51.63
2022-09-10T22:07:56.238Z,51.69
2022-09-10T22:12:57.111Z,51.57
2022-09-10T22:17:56.102Z,51.57
2022-09-10T22:22:56.046Z,51.47
2022-09-10T22:27:56.021Z,51.25
2022-09-10T22:32:55.934Z,51.32
2022-09-10T22:37:55.828Z,51.25
2022-09-10T22:42:55.788Z,51.41
2022-09-10T22:47:55.731Z,51.32
2022-09-10T22:52:55.643Z,51.50
2022-09-10T22:57:55.560Z,51.60
2022-09-10T23:02:55.522Z,51.66
2022-09-10T23:07:55.439Z,51.57
2022-09-10T23:12:55.373Z,51.88
2022-09-10T23:17:55.318Z,51.63
2022-09-10T23:22:55.239Z,51.95
2022-09-10T23:27:55.169Z,52.01
2022-09-10T23:32:55.119Z,51.92
2022-09-10T23:37:55.086Z,51.98
2022-09-10T23:42:54.981Z,52.33
2022-09-10T23:47:54.903Z,52.04
2022-09-10T23:52:54.847Z,52.24
2022-09-10T23:57:54.783Z,52.40
